Flight Track Log - Related Links

Times and Time Zones

All times are in EDT time to prevent confusion due to time zone crossing. See the N508QS flight status page for this flight to view local times or setup timezone preferences in your user account.

Time Position Orientation Groundspeed Altitude Reporting Facility
EDT Latitude Longitude Course Direction KTS MPH feet Rate Location/Type
Mon 04:46:17 PM 28.5500 -81.3167 60° Northeast 174 200 900  Level Orlando TRACON
Mon 04:46:53 PM 28.5667 -81.2833 60° Northeast 182 209 1,500 2,500 Climbing Orlando TRACON
Mon 04:47:53 PM 28.6167 -81.2833 360° North 224 258 4,900 3,371 Climbing Orlando TRACON
Mon 04:48:22 PM 28.6431 -81.3053 324° Northwest 270 311 6,500 3,101 Climbing Jacksonville Center
Mon 04:49:22 PM 28.7064 -81.3589 323° Northwest 295 339 9,500 2,800 Climbing Jacksonville Center
Mon 04:50:22 PM 28.7942 -81.3717 353° North 295 339 12,100 2,500 Climbing Jacksonville Center
Mon 04:51:22 PM 28.8947 -81.4033 345° North 323 372 14,500 2,450 Climbing Jacksonville Center
Mon 04:52:22 PM 28.9972 -81.4325 346° North 362 417 17,000 2,400 Climbing Jacksonville Center
Mon 04:53:22 PM 29.1019 -81.4667 344° North 376 433 19,300 2,400 Climbing Jacksonville Center
Mon 04:55:22 PM 29.3133 -81.5231 347° North 384 442 24,200 2,467 Climbing Jacksonville Center
Mon 04:56:22 PM 29.4244 -81.5503 348° North 389 448 26,700 2,500 Climbing Jacksonville Center
Mon 04:57:22 PM 29.5417 -81.5819 347° North 410 472 29,200 2,500 Climbing Jacksonville Center
Mon 04:58:22 PM 29.6631 -81.6092 349° North 425 489 31,700 2,350 Climbing Jacksonville Center
Mon 04:59:22 PM 29.7864 -81.6361 349° North 437 503 33,900 1,650 Climbing Jacksonville Center
Mon 05:00:22 PM 29.9156 -81.5986 14° North 451 519 35,000 550 Climbing Jacksonville Center
Mon 05:01:22 PM 30.0294 -81.5250 29° Northeast 451 519 35,000  Level Jacksonville Center
Mon 05:02:22 PM 30.1394 -81.4561 28° Northeast 451 519 35,000  Level Jacksonville Center
Mon 05:03:22 PM 30.2558 -81.4089 19° North 445 512 35,000  Level Jacksonville Center
Mon 05:04:22 PM 30.3669 -81.4528 341° North 403 464 35,000  Level Jacksonville Center
Mon 05:05:22 PM 30.4617 -81.5164 330° Northwest 414 476 35,000  Level Jacksonville Center
Mon 05:06:22 PM 30.5667 -81.5850 331° Northwest 414 476 35,000  Level Jacksonville Center
Mon 05:07:22 PM 30.6678 -81.6561 329° Northwest 425 489 35,000  Level Jacksonville Center
Mon 05:08:22 PM 30.7728 -81.7247 331° Northwest 425 489 35,000  Level Jacksonville Center
Mon 05:09:22 PM 30.8778 -81.7889 332° Northwest 425 489 35,000  Level Jacksonville Center
Mon 05:10:22 PM 30.9806 -81.8556 331° Northwest 425 489 35,000  Level Jacksonville Center
Mon 05:11:22 PM 31.0856 -81.9222 331° Northwest 425 489 35,000  Level Jacksonville Center
Mon 05:12:22 PM 31.1944 -81.9917 331° Northwest 425 489 35,000  Level Jacksonville Center
Mon 05:13:22 PM 31.3036 -82.0611 331° Northwest 430 495 35,000  Level Jacksonville Center
Mon 05:14:22 PM 31.4186 -82.1064 341° North 435 501 35,000  Level Jacksonville Center
Mon 05:15:22 PM 31.5400 -82.1417 346° North 442 509 35,000  Level Jacksonville Center
Mon 05:16:22 PM 31.6592 -82.1725 348° North 430 495 35,000  Level Jacksonville Center
Mon 05:17:22 PM 31.7744 -82.2425 333° Northwest 420 483 35,000  Level Jacksonville Center
Mon 05:20:32 PM 32.0978 -82.4819 328° Northwest 437 503 35,000  Level Atlanta Center
Mon 05:21:33 PM 32.1989 -82.5564 328° Northwest 437 503 35,000 -500 Level Atlanta Center
Mon 05:22:32 PM 32.2958 -82.6383 324° Northwest 431 496 34,000 -605 Descending Atlanta Center
Mon 05:23:32 PM 32.3783 -82.7428 313° West 426 490 33,800 -500 Descending Atlanta Center
Mon 05:24:32 PM 32.4608 -82.8450 314° West 426 490 33,000 -1,000 Descending Atlanta Center
Mon 05:25:32 PM 32.5433 -82.9497 313° West 426 490 31,800 -1,700 Descending Atlanta Center
Mon 05:26:32 PM 32.6339 -83.0644 313° West 454 522 29,600 -2,250 Descending Atlanta Center
Mon 05:27:32 PM 32.7225 -83.1772 313° West 461 531 27,300 -2,300 Descending Atlanta Center
Mon 05:28:32 PM 32.8089 -83.2850 314° West 461 531 25,000 -2,250 Descending Atlanta Center
Mon 05:29:32 PM 32.8867 -83.3858 313° West 453 521 22,800 -2,200 Descending Atlanta Center
Mon 05:30:32 PM 32.9644 -83.4867 313° West 427 491 20,600 -2,100 Descending Atlanta Center
Mon 05:31:32 PM 33.0400 -83.5853 312° West 411 473 18,600 -1,950 Descending Atlanta Center
Mon 05:32:32 PM 33.1047 -83.6644 314° West 389 448 16,700 -1,975 Descending Atlanta Center
Mon 05:32:51 PM 33.1333 -83.7000 314° West 376 433 16,000 -1,906 Descending Atlanta TRACON
Mon 05:33:57 PM 33.2167 -83.8000 315° West 370 426 14,000 -952 Descending Atlanta TRACON
Mon 05:34:57 PM 33.2833 -83.9000 309° West 394 453 14,000  Level Atlanta TRACON
Mon 05:35:33 PM 33.3119 -83.9519 303° West 389 448 14,000  Level Atlanta Center
Mon 05:36:32 PM 33.3850 -84.0636 308° West 395 455 14,000 -50 Level Atlanta Center
Mon 05:37:32 PM 33.4644 -84.1533 317° Northwest 395 455 13,900 -900 Descending Atlanta Center
Mon 05:38:32 PM 33.5583 -84.2233 328° Northwest 393 452 12,200 -950 Descending Atlanta Center
Mon 05:39:32 PM 33.6375 -84.2808 329° Northwest 365 420 12,000 -141 Descending Atlanta Center
Mon 05:39:57 PM 33.6667 -84.3000 331° Northwest 283 326 12,000 -353 Level Atlanta TRACON
Mon 05:40:57 PM 33.7167 -84.3500 320° Northwest 261 300 11,500 -900 Descending Atlanta TRACON
Mon 05:41:57 PM 33.7333 -84.4333 284° West 241 277 10,200 -1,300 Descending Atlanta TRACON
Mon 05:42:57 PM 33.7333 -84.5000 270° West 235 270 8,900 -1,700 Descending Atlanta TRACON
Mon 05:43:57 PM 33.7333 -84.5833 270° West 237 273 6,800 -2,368 Descending Atlanta TRACON
Mon 05:44:51 PM 33.7167 -84.6500 253° West 229 264 4,400 -1,474 Descending Atlanta TRACON
Mon 05:45:51 PM 33.6833 -84.6333 157° South 187 215 4,000 -650 Descending Atlanta TRACON
Mon 05:46:51 PM 33.6500 -84.5833 129° Southeast 195 224 3,100 -800 Descending Atlanta TRACON
Mon 05:47:51 PM 33.6500 -84.5167 90° East 185 213 2,400 -750 Descending Atlanta TRACON
Mon 05:48:51 PM 33.6500 -84.4667 90° East 134 154 1,600 -800 Descending Atlanta TRACON
Mon 05:50:00 PM 33.6367 -84.4279 64° Northeast  Level Estimated
Mon 05:57:00 PM 33.6367 -84.4279 64° Northeast  Level Estimated
Mon 05:58:00 PM 33.6367 -84.4279 64° Northeast  Level Estimated

Login

Don't have an account? Register now (free) for customized features, flight alerts, and more!